Time;durP1;ratioP1;P1;durP2;ratioP2;P2;SDS_P1;SDS_P2;PMS_P1;PMS_P2;Temp;Humidity;BMP_temperature;BMP_pressure;BME280_temperature;BME280_humidity;BME280_pressure;Samples;Min_cycle;Max_cycle;Signal;HPM_P1;HPM_P2
2021/12/04 00:00:44;;;;;;;0.50;0.47;;;7.00;99.90;;;;;;5052816;28;20205;-69
2021/12/04 00:03:10;;;;;;;0.70;0.60;;;7.00;99.90;;;;;;5060121;28;20172;-71
2021/12/04 00:05:35;;;;;;;0.77;0.47;;;7.00;99.90;;;;;;5062678;28;20216;-73
2021/12/04 00:08:04;;;;;;;0.73;0.50;;;7.00;99.90;;;;;;5054119;28;20200;-70
2021/12/04 00:10:34;;;;;;;0.67;0.50;;;7.10;99.90;;;;;;5055203;28;20194;-71
2021/12/04 00:13:02;;;;;;;0.40;0.40;;;7.10;99.90;;;;;;5047125;28;20200;-72
2021/12/04 00:15:30;;;;;;;0.57;0.57;;;7.10;99.90;;;;;;5071497;28;20196;-72
2021/12/04 00:17:59;;;;;;;0.40;0.40;;;7.10;99.90;;;;;;5054358;28;20185;-70
2021/12/04 00:20:27;;;;;;;0.70;0.50;;;7.10;99.90;;;;;;5055415;28;20237;-71
2021/12/04 00:22:56;;;;;;;0.40;0.40;;;7.10;99.90;;;;;;5054505;28;20177;-71
2021/12/04 00:25:27;;;;;;;0.80;0.50;;;7.10;99.90;;;;;;5053493;28;20174;-71
2021/12/04 00:27:53;;;;;;;0.50;0.40;;;7.10;99.90;;;;;;5051137;28;20205;-71
2021/12/04 00:30:20;;;;;;;0.87;0.60;;;7.10;99.90;;;;;;5046423;28;20219;-71
2021/12/04 00:32:56;;;;;;;0.30;0.30;;;7.20;99.90;;;;;;5051683;28;20197;-71
2021/12/04 00:36:09;;;;;;;0.50;0.40;;;7.20;99.90;;;;;;5055607;28;20212;-70
2021/12/04 00:49:11;;;;;;;0.40;0.40;;;7.20;99.90;;;;;;5051012;28;20188;-72
2021/12/04 00:51:50;;;;;;;0.40;0.40;;;7.20;99.90;;;;;;5052759;28;20176;-71
2021/12/04 00:54:17;;;;;;;0.50;0.50;;;7.20;99.90;;;;;;5049993;28;20205;-69
2021/12/04 00:56:46;;;;;;;0.30;0.30;;;7.20;99.90;;;;;;5052296;28;20262;-71
2021/12/04 00:59:14;;;;;;;0.40;0.40;;;7.20;99.90;;;;;;5053728;28;20451;-71
2021/12/04 01:01:41;;;;;;;0.63;0.53;;;7.20;99.90;;;;;;5052708;28;20174;-71
2021/12/04 01:04:09;;;;;;;0.60;0.50;;;7.20;99.90;;;;;;5057886;28;20256;-71
2021/12/04 01:06:35;;;;;;;0.60;0.50;;;7.20;99.90;;;;;;5054215;28;20221;-72
2021/12/04 01:09:01;;;;;;;0.40;0.40;;;7.20;99.90;;;;;;5053248;28;20212;-70
2021/12/04 01:11:26;;;;;;;0.50;0.50;;;7.20;99.90;;;;;;5059519;28;20242;-72
2021/12/04 01:13:55;;;;;;;0.70;0.50;;;7.30;99.90;;;;;;5050775;28;20451;-71
2021/12/04 01:16:20;;;;;;;0.60;0.57;;;7.30;99.90;;;;;;5055089;28;20219;-71
2021/12/04 01:18:48;;;;;;;0.80;0.70;;;7.30;99.90;;;;;;5056916;28;20181;-71
2021/12/04 01:21:14;;;;;;;0.73;0.53;;;7.30;99.90;;;;;;5055598;28;20201;-71
2021/12/04 01:23:40;;;;;;;0.53;0.50;;;7.30;99.90;;;;;;5056986;28;20309;-71
2021/12/04 01:26:08;;;;;;;0.70;0.60;;;7.30;99.90;;;;;;5061674;28;20177;-70
2021/12/04 01:28:34;;;;;;;0.47;0.40;;;7.20;99.90;;;;;;5056072;28;20181;-71
2021/12/04 01:31:04;;;;;;;0.60;0.57;;;7.30;99.90;;;;;;5063732;28;20184;-69
2021/12/04 01:33:30;;;;;;;0.80;0.67;;;7.30;99.90;;;;;;5054754;28;20208;-71
2021/12/04 01:35:55;;;;;;;0.60;0.60;;;7.30;99.90;;;;;;5051961;28;20223;-71
2021/12/04 01:38:22;;;;;;;0.60;0.50;;;7.30;99.90;;;;;;5052892;28;20201;-71
2021/12/04 01:40:47;;;;;;;1.07;0.43;;;7.30;99.90;;;;;;5062220;28;20256;-70
2021/12/04 01:43:13;;;;;;;0.53;0.50;;;7.30;99.90;;;;;;5056704;28;20224;-73
2021/12/04 01:45:39;;;;;;;0.70;0.70;;;7.30;99.90;;;;;;5052663;28;20267;-71
2021/12/04 01:48:05;;;;;;;0.50;0.50;;;7.20;99.90;;;;;;5052822;28;20319;-71
2021/12/04 01:50:34;;;;;;;0.57;0.50;;;7.30;99.90;;;;;;5065018;28;20180;-71
2021/12/04 01:53:01;;;;;;;0.43;0.43;;;7.20;99.90;;;;;;5066753;28;20196;-71
2021/12/04 01:55:30;;;;;;;0.60;0.60;;;7.20;99.90;;;;;;5046848;28;20205;-71
2021/12/04 01:57:57;;;;;;;0.60;0.57;;;7.20;99.90;;;;;;5049533;28;20180;-71
2021/12/04 02:00:23;;;;;;;0.83;0.53;;;7.20;99.90;;;;;;5054857;28;20200;-71
2021/12/04 02:02:49;;;;;;;0.90;0.60;;;7.20;99.90;;;;;;5054181;28;20208;-71
2021/12/04 02:05:15;;;;;;;0.70;0.50;;;7.20;99.90;;;;;;5053530;28;20174;-72
2021/12/04 02:07:40;;;;;;;0.80;0.70;;;7.20;99.90;;;;;;5051936;28;20198;-71
2021/12/04 02:10:09;;;;;;;0.53;0.53;;;7.20;99.90;;;;;;5054649;28;20177;-71
2021/12/04 02:12:37;;;;;;;1.10;0.77;;;7.20;99.90;;;;;;5051292;28;20256;-71
2021/12/04 02:15:04;;;;;;;0.97;0.73;;;7.20;99.90;;;;;;5052421;28;20239;-71
2021/12/04 02:17:34;;;;;;;0.90;0.80;;;7.20;99.90;;;;;;5051531;28;20199;-70
2021/12/04 02:19:59;;;;;;;0.70;0.70;;;7.20;99.90;;;;;;5053431;28;20262;-71
2021/12/04 02:22:27;;;;;;;1.20;0.90;;;7.20;99.90;;;;;;5055407;28;20177;-71
2021/12/04 02:24:53;;;;;;;0.93;0.70;;;7.20;99.90;;;;;;5049970;28;20196;-71
2021/12/04 02:27:18;;;;;;;0.93;0.80;;;7.20;99.90;;;;;;5057565;28;20173;-71
2021/12/04 02:29:47;;;;;;;0.90;0.80;;;7.20;99.90;;;;;;5053797;28;20230;-71
2021/12/04 02:32:17;;;;;;;1.30;1.00;;;7.20;99.90;;;;;;5052845;28;20468;-68
2021/12/04 02:34:42;;;;;;;1.20;1.00;;;7.20;99.90;;;;;;5042369;28;20177;-67
2021/12/04 02:37:08;;;;;;;1.33;1.10;;;7.10;99.90;;;;;;5052434;28;20189;-71
2021/12/04 02:39:44;;;;;;;1.20;1.10;;;7.10;99.90;;;;;;5050036;28;20173;-71
2021/12/04 02:42:22;;;;;;;1.73;1.10;;;7.10;99.90;;;;;;5074402;28;20197;-71
2021/12/04 02:44:51;;;;;;;1.33;1.20;;;7.00;99.90;;;;;;5057663;28;20173;-71
2021/12/04 02:47:17;;;;;;;1.10;1.00;;;7.00;99.90;;;;;;5054352;28;20448;-70
2021/12/04 02:49:46;;;;;;;1.47;1.20;;;7.00;99.90;;;;;;5049023;28;20421;-71
2021/12/04 02:52:15;;;;;;;1.40;1.30;;;6.90;99.90;;;;;;5052361;28;20217;-69
2021/12/04 02:54:41;;;;;;;1.57;1.20;;;6.90;99.90;;;;;;5055018;28;20184;-71
2021/12/04 02:57:11;;;;;;;2.00;1.10;;;6.90;99.90;;;;;;5057114;28;20186;-70
2021/12/04 02:59:40;;;;;;;1.83;1.23;;;6.80;99.90;;;;;;5048889;28;20169;-71
2021/12/04 03:02:15;;;;;;;1.93;1.30;;;6.80;99.90;;;;;;5052932;28;20208;-71
2021/12/04 03:04:43;;;;;;;1.70;1.23;;;6.80;99.90;;;;;;5055062;28;20200;-70
2021/12/04 03:07:09;;;;;;;1.43;1.17;;;6.80;99.90;;;;;;5050475;28;20189;-71
2021/12/04 03:09:35;;;;;;;1.20;1.10;;;6.70;99.90;;;;;;5050180;28;20205;-71
2021/12/04 03:12:03;;;;;;;1.27;1.13;;;6.70;99.90;;;;;;5053457;28;20253;-71
2021/12/04 03:14:31;;;;;;;4.00;1.37;;;6.70;99.90;;;;;;5056064;28;20213;-70
2021/12/04 03:17:00;;;;;;;1.17;1.07;;;6.70;99.90;;;;;;5056203;28;20232;-70
2021/12/04 03:19:26;;;;;;;1.70;1.10;;;6.70;99.90;;;;;;5057316;28;20184;-70
2021/12/04 03:21:54;;;;;;;1.20;1.10;;;6.70;99.90;;;;;;5045987;28;20188;-72
2021/12/04 03:24:20;;;;;;;1.20;1.07;;;6.70;99.90;;;;;;5056659;28;20188;-70
2021/12/04 03:26:49;;;;;;;1.27;1.17;;;6.70;99.90;;;;;;5052249;28;20185;-70
2021/12/04 03:29:18;;;;;;;1.43;1.00;;;6.70;99.90;;;;;;5056089;28;20237;-70
2021/12/04 03:42:28;;;;;;;1.07;0.97;;;6.60;99.90;;;;;;5051147;28;20197;-70
2021/12/04 03:44:54;;;;;;;1.63;1.00;;;6.60;99.90;;;;;;5056630;28;20231;-71
2021/12/04 03:47:21;;;;;;;1.20;1.00;;;6.60;99.90;;;;;;5064426;28;20184;-70
2021/12/04 03:49:47;;;;;;;1.83;1.07;;;6.60;99.90;;;;;;5056382;28;20212;-70
2021/12/04 03:52:16;;;;;;;1.60;1.10;;;6.60;99.90;;;;;;5056886;28;20177;-71
2021/12/04 03:54:43;;;;;;;1.20;1.10;;;6.60;99.90;;;;;;5052985;28;20486;-70
2021/12/04 03:57:12;;;;;;;1.10;1.00;;;6.60;99.90;;;;;;5054384;28;20240;-70
2021/12/04 03:59:41;;;;;;;1.20;1.10;;;6.60;99.90;;;;;;5051218;28;20165;-70
2021/12/04 04:02:11;;;;;;;1.40;1.03;;;6.60;99.90;;;;;;5071896;28;20409;-70
2021/12/04 04:04:37;;;;;;;1.57;1.40;;;6.60;99.90;;;;;;5063641;28;20212;-70
2021/12/04 04:07:05;;;;;;;1.30;1.10;;;6.60;99.90;;;;;;5051497;28;20197;-70
2021/12/04 04:09:34;;;;;;;1.30;1.10;;;6.60;99.90;;;;;;5056786;28;20342;-70
2021/12/04 04:12:00;;;;;;;1.10;1.00;;;6.60;99.90;;;;;;5056012;28;20196;-70
2021/12/04 04:14:29;;;;;;;1.30;1.00;;;6.60;99.90;;;;;;5054910;28;20235;-70
2021/12/04 04:16:56;;;;;;;1.70;1.20;;;6.60;99.90;;;;;;5055640;28;20213;-70
2021/12/04 04:19:23;;;;;;;1.20;1.10;;;6.60;99.90;;;;;;5065549;28;20263;-70
2021/12/04 04:21:53;;;;;;;1.17;1.07;;;6.50;99.90;;;;;;5052807;28;20173;-70
2021/12/04 04:24:24;;;;;;;1.47;1.03;;;6.50;99.90;;;;;;5053532;28;20217;-70
2021/12/04 04:26:50;;;;;;;2.03;1.43;;;6.50;99.90;;;;;;5049587;28;20186;-71
2021/12/04 04:29:18;;;;;;;1.70;1.30;;;6.50;99.90;;;;;;5051374;28;20188;-70
2021/12/04 04:31:48;;;;;;;1.67;1.40;;;6.50;99.90;;;;;;5040640;28;20198;-70
2021/12/04 04:34:24;;;;;;;1.40;1.30;;;6.50;99.90;;;;;;5063279;28;20200;-71
2021/12/04 04:37:10;;;;;;;1.60;1.50;;;6.50;99.90;;;;;;5051784;28;20259;-70
2021/12/04 05:12:21;;;;;;;1.97;1.50;;;6.40;99.90;;;;;;5059109;28;20212;-70
2021/12/04 05:14:53;;;;;;;1.33;1.20;;;6.40;99.90;;;;;;5053625;28;20169;-69
2021/12/04 05:17:42;;;;;;;1.70;1.50;;;6.40;99.90;;;;;;5053416;28;20173;-70
2021/12/04 05:20:12;;;;;;;1.90;1.50;;;6.40;99.90;;;;;;5056707;28;20205;-70
2021/12/04 05:22:38;;;;;;;2.10;1.73;;;6.50;99.90;;;;;;5053185;28;20181;-70
2021/12/04 05:25:04;;;;;;;2.13;1.77;;;6.50;99.90;;;;;;5051286;28;20178;-70
2021/12/04 05:27:32;;;;;;;1.60;1.50;;;6.50;99.90;;;;;;5052956;28;20232;-70
2021/12/04 05:29:57;;;;;;;2.10;1.90;;;6.50;99.90;;;;;;5052131;28;20193;-70
2021/12/04 05:32:23;;;;;;;1.70;1.60;;;6.50;99.90;;;;;;5052187;28;20207;-70
2021/12/04 05:34:51;;;;;;;1.90;1.70;;;6.50;99.90;;;;;;5051716;28;20266;-70
2021/12/04 05:37:19;;;;;;;1.70;1.60;;;6.50;99.90;;;;;;5047478;28;20177;-70
2021/12/04 05:39:44;;;;;;;1.77;1.57;;;6.50;99.90;;;;;;5051079;28;20180;-70
2021/12/04 05:42:10;;;;;;;1.90;1.60;;;6.50;99.90;;;;;;5051803;28;20158;-70
2021/12/04 05:44:36;;;;;;;1.90;1.60;;;6.50;99.90;;;;;;5054763;28;20230;-69
2021/12/04 05:47:14;;;;;;;1.93;1.73;;;6.50;99.90;;;;;;5051337;28;20205;-70
2021/12/04 05:55:11;;;;;;;1.70;1.60;;;6.50;99.90;;;;;;5057890;28;20245;-70
2021/12/04 05:57:42;;;;;;;2.10;1.60;;;6.50;99.90;;;;;;5053595;28;20179;-70
2021/12/04 06:00:14;;;;;;;1.60;1.50;;;6.50;99.90;;;;;;5065928;28;20219;-70
2021/12/04 06:02:42;;;;;;;1.87;1.50;;;6.50;99.90;;;;;;5053295;28;20165;-70
2021/12/04 06:05:08;;;;;;;1.67;1.50;;;6.50;99.90;;;;;;5046408;28;20200;-70
2021/12/04 06:07:34;;;;;;;1.77;1.67;;;6.50;99.90;;;;;;5052807;28;20225;-70
2021/12/04 06:10:00;;;;;;;2.20;2.00;;;6.50;99.90;;;;;;5050884;28;20173;-70
2021/12/04 06:12:25;;;;;;;1.97;1.77;;;6.40;99.90;;;;;;5052463;28;20215;-69
2021/12/04 06:14:53;;;;;;;1.73;1.63;;;6.40;99.90;;;;;;5051358;28;20242;-70
2021/12/04 06:17:23;;;;;;;2.40;1.90;;;6.40;99.90;;;;;;5052262;28;20461;-70
2021/12/04 06:22:42;;;;;;;1.70;1.60;;;6.40;99.90;;;;;;5053978;28;20238;-70
2021/12/04 06:25:19;;;;;;;1.90;1.70;;;6.40;99.90;;;;;;5060396;28;20223;-70
2021/12/04 06:27:47;;;;;;;2.13;1.53;;;6.40;99.90;;;;;;5057491;28;20231;-70
2021/12/04 06:30:19;;;;;;;1.70;1.50;;;6.40;99.90;;;;;;5053668;28;20214;-70
2021/12/04 06:32:50;;;;;;;2.03;1.40;;;6.40;99.90;;;;;;5046664;28;20201;-71
2021/12/04 06:35:22;;;;;;;1.70;1.40;;;6.40;99.90;;;;;;5055574;28;20261;-71
2021/12/04 06:37:50;;;;;;;2.10;1.73;;;6.40;99.90;;;;;;5050948;28;20178;-70
2021/12/04 06:40:23;;;;;;;2.10;1.90;;;6.40;99.90;;;;;;5049890;28;20291;-71
2021/12/04 06:42:52;;;;;;;2.10;1.90;;;6.40;99.90;;;;;;5043775;28;20178;-71
2021/12/04 06:45:19;;;;;;;2.30;2.10;;;6.40;99.90;;;;;;5051421;28;20189;-69
2021/12/04 06:47:51;;;;;;;1.80;1.70;;;6.40;99.90;;;;;;5055428;28;20195;-69
2021/12/04 06:50:27;;;;;;;1.60;1.50;;;6.40;99.90;;;;;;5048082;28;20182;-69
2021/12/04 06:52:58;;;;;;;1.80;1.50;;;6.30;99.90;;;;;;5065832;28;20202;-70
2021/12/04 06:55:36;;;;;;;1.80;1.70;;;6.30;99.90;;;;;;5053634;28;20203;-69
2021/12/04 06:58:02;;;;;;;2.03;1.80;;;6.30;99.90;;;;;;5055215;28;20272;-71
2021/12/04 07:00:30;;;;;;;1.77;1.67;;;6.30;99.90;;;;;;5059512;28;20285;-69
2021/12/04 07:02:55;;;;;;;2.03;1.70;;;6.30;99.90;;;;;;5058153;28;20204;-69
2021/12/04 07:05:21;;;;;;;1.60;1.50;;;6.30;99.90;;;;;;5051731;28;20181;-69
2021/12/04 07:07:47;;;;;;;2.33;2.03;;;6.30;99.90;;;;;;5052287;28;20185;-71
2021/12/04 07:10:12;;;;;;;1.83;1.60;;;6.30;99.90;;;;;;5051757;28;20189;-68
2021/12/04 07:12:43;;;;;;;1.63;1.53;;;6.30;99.90;;;;;;5055678;28;20276;-68
2021/12/04 07:15:10;;;;;;;1.73;1.57;;;6.30;99.90;;;;;;5052147;28;20669;-69
2021/12/04 07:17:36;;;;;;;1.80;1.70;;;6.30;99.90;;;;;;5045101;28;20205;-69
2021/12/04 07:20:09;;;;;;;1.90;1.70;;;6.30;99.90;;;;;;5054374;28;20224;-69
2021/12/04 07:22:37;;;;;;;2.10;1.80;;;6.30;99.90;;;;;;5063071;28;20169;-69
2021/12/04 07:25:05;;;;;;;2.50;2.30;;;6.20;99.90;;;;;;5057918;28;20227;-69
2021/12/04 07:27:33;;;;;;;2.10;1.60;;;6.20;99.90;;;;;;5056286;28;20200;-69
2021/12/04 07:30:01;;;;;;;2.10;1.63;;;6.20;99.90;;;;;;5059450;28;20221;-69
2021/12/04 07:32:29;;;;;;;1.90;1.70;;;6.20;99.90;;;;;;5055134;28;20486;-69
2021/12/04 07:34:55;;;;;;;2.27;1.70;;;6.20;99.90;;;;;;5054937;28;20188;-69
2021/12/04 07:37:22;;;;;;;2.00;1.87;;;6.20;99.90;;;;;;5051838;28;20178;-69
2021/12/04 07:39:49;;;;;;;2.00;1.80;;;6.20;99.90;;;;;;5057465;28;20173;-69
2021/12/04 07:42:15;;;;;;;1.90;1.70;;;6.20;99.90;;;;;;5054359;28;20181;-69
2021/12/04 07:44:43;;;;;;;2.40;2.13;;;6.20;99.90;;;;;;5056409;28;20201;-69
2021/12/04 07:47:09;;;;;;;2.00;1.80;;;6.20;99.90;;;;;;5055555;28;20177;-69
2021/12/04 07:49:37;;;;;;;1.80;1.70;;;6.20;99.90;;;;;;5056424;28;20200;-69
2021/12/04 07:52:08;;;;;;;2.47;1.73;;;6.20;99.90;;;;;;5055192;28;20189;-70
2021/12/04 07:54:34;;;;;;;2.10;1.90;;;6.20;99.90;;;;;;5054883;28;20200;-69
2021/12/04 07:57:00;;;;;;;2.50;1.80;;;6.20;99.90;;;;;;5044157;28;20212;-69
2021/12/04 07:59:30;;;;;;;1.90;1.67;;;6.20;99.90;;;;;;5056964;28;20178;-69
2021/12/04 08:01:59;;;;;;;2.13;1.80;;;6.30;99.90;;;;;;5055233;28;20236;-70
2021/12/04 08:04:26;;;;;;;2.33;1.80;;;6.30;99.90;;;;;;5052769;28;20177;-70
2021/12/04 08:06:54;;;;;;;1.97;1.70;;;6.30;99.90;;;;;;5050068;28;20201;-70
2021/12/04 08:09:20;;;;;;;1.93;1.60;;;6.30;99.90;;;;;;5049712;28;20184;-69
2021/12/04 08:11:49;;;;;;;1.73;1.60;;;6.40;99.90;;;;;;5055013;28;20178;-71
2021/12/04 08:14:15;;;;;;;3.43;2.60;;;6.40;99.90;;;;;;5052440;28;20181;-71
2021/12/04 08:16:41;;;;;;;2.20;2.00;;;6.40;99.90;;;;;;5058918;28;20261;-70
2021/12/04 08:19:11;;;;;;;2.13;1.93;;;6.50;99.90;;;;;;5059280;28;20177;-71
2021/12/04 08:21:37;;;;;;;1.90;1.80;;;6.50;99.90;;;;;;5054398;28;20181;-71
2021/12/04 08:24:05;;;;;;;2.20;2.00;;;6.50;99.90;;;;;;5048725;28;20344;-70
2021/12/04 08:26:31;;;;;;;2.00;1.70;;;6.50;99.90;;;;;;5054732;28;20181;-70
2021/12/04 08:28:57;;;;;;;1.60;1.50;;;6.60;99.90;;;;;;5051888;28;20185;-72
2021/12/04 08:31:23;;;;;;;2.03;1.57;;;6.60;99.90;;;;;;5053031;28;20173;-72
2021/12/04 08:33:51;;;;;;;1.50;1.40;;;6.60;99.90;;;;;;5055716;28;20169;-70
2021/12/04 08:36:17;;;;;;;1.60;1.50;;;6.60;99.90;;;;;;5053731;28;20200;-71
2021/12/04 08:38:48;;;;;;;1.60;1.40;;;6.60;99.90;;;;;;5053277;28;20209;-70
2021/12/04 08:41:22;;;;;;;1.30;1.20;;;6.60;99.90;;;;;;5052497;28;20188;-70
2021/12/04 08:43:48;;;;;;;2.03;1.40;;;6.70;99.90;;;;;;5052834;28;20170;-71
2021/12/04 08:46:20;;;;;;;1.60;1.50;;;6.70;99.90;;;;;;5056533;28;20195;-71
2021/12/04 08:48:49;;;;;;;1.60;1.40;;;6.80;99.90;;;;;;5055978;28;20185;-72
2021/12/04 08:51:17;;;;;;;1.60;1.40;;;6.80;99.90;;;;;;5057399;28;20370;-71
2021/12/04 08:53:43;;;;;;;2.67;1.80;;;6.80;99.90;;;;;;5057654;28;20215;-70
2021/12/04 08:56:09;;;;;;;1.73;1.63;;;6.80;99.90;;;;;;5051131;28;20305;-71
2021/12/04 08:58:40;;;;;;;1.50;1.40;;;6.80;99.90;;;;;;5054906;28;20493;-72
2021/12/04 09:01:12;;;;;;;1.60;1.33;;;6.90;99.90;;;;;;5051336;28;20277;-71
2021/12/04 09:03:46;;;;;;;2.07;1.73;;;6.90;99.90;;;;;;5048947;28;20173;-71
2021/12/04 09:06:17;;;;;;;1.60;1.50;;;6.90;99.90;;;;;;5035405;28;20200;-71
2021/12/04 09:08:44;;;;;;;1.50;1.40;;;6.90;99.90;;;;;;5054574;28;20198;-71
2021/12/04 09:11:18;;;;;;;1.90;1.50;;;6.90;99.90;;;;;;5057330;28;20173;-72
2021/12/04 09:13:47;;;;;;;1.60;1.50;;;6.90;99.90;;;;;;5052334;28;20230;-69
2021/12/04 09:16:15;;;;;;;1.80;1.37;;;7.00;99.90;;;;;;5058605;28;20215;-69
2021/12/04 09:18:41;;;;;;;1.37;1.20;;;7.00;99.90;;;;;;5056611;28;20181;-71
2021/12/04 09:21:10;;;;;;;1.83;1.50;;;7.00;99.90;;;;;;5053060;28;20181;-72
2021/12/04 09:23:41;;;;;;;1.53;1.40;;;7.00;99.90;;;;;;5057733;28;20201;-69
2021/12/04 09:26:12;;;;;;;1.70;1.60;;;7.00;99.90;;;;;;5053715;28;20275;-69
2021/12/04 09:29:09;;;;;;;1.80;1.60;;;7.00;99.90;;;;;;5054066;28;20181;-70
2021/12/04 09:40:16;;;;;;;1.80;1.60;;;7.00;99.90;;;;;;5013214;28;20206;-69
2021/12/04 10:35:07;;;;;;;1.50;1.40;;;7.50;99.90;;;;;;5056609;28;20216;-70
2021/12/04 10:37:35;;;;;;;2.40;1.70;;;7.50;99.90;;;;;;5066712;28;20174;-71
2021/12/04 10:40:07;;;;;;;2.33;1.80;;;7.50;99.90;;;;;;5053372;28;20181;-71
2021/12/04 10:42:56;;;;;;;1.80;1.60;;;7.60;99.90;;;;;;5052687;28;20180;-70
2021/12/04 10:45:33;;;;;;;1.67;1.43;;;7.60;99.90;;;;;;5052271;28;20181;-71
2021/12/04 10:48:06;;;;;;;1.60;1.30;;;7.70;99.90;;;;;;5068129;28;20226;-70
2021/12/04 10:53:03;;;;;;;1.70;1.60;;;7.70;99.90;;;;;;5050914;28;20173;-70
2021/12/04 11:03:39;;;;;;;;;;;;;;;;;;;;;
2021/12/04 11:46:46;;;;;;;1.60;1.30;;;8.00;99.90;;;;;;5039538;28;20512;-70
2021/12/04 11:49:21;;;;;;;1.37;1.20;;;8.10;99.90;;;;;;5057527;28;20173;-70
2021/12/04 11:51:55;;;;;;;1.33;1.20;;;8.00;99.90;;;;;;5056690;28;20223;-70
2021/12/04 11:54:29;;;;;;;1.30;1.20;;;8.00;99.90;;;;;;5058749;28;21861;-70
2021/12/04 11:57:12;;;;;;;1.30;1.20;;;8.10;99.90;;;;;;5050477;28;20231;-71
2021/12/04 11:59:45;;;;;;;1.37;1.20;;;8.10;99.90;;;;;;5057508;28;20177;-71
2021/12/04 12:02:23;;;;;;;1.60;1.40;;;8.10;99.90;;;;;;5055008;28;20256;-72
2021/12/04 12:04:52;;;;;;;1.20;1.10;;;8.10;99.90;;;;;;5052906;28;20294;-71
2021/12/04 12:07:19;;;;;;;1.67;1.40;;;8.00;99.90;;;;;;5057521;28;20211;-71
2021/12/04 12:09:47;;;;;;;2.00;1.30;;;8.00;99.90;;;;;;5050092;28;20212;-72
2021/12/04 12:12:16;;;;;;;1.30;1.20;;;8.00;99.90;;;;;;5054800;28;20258;-71
2021/12/04 12:14:46;;;;;;;1.47;1.33;;;8.00;99.90;;;;;;5053168;28;20184;-71
2021/12/04 12:17:13;;;;;;;1.83;1.60;;;8.00;99.90;;;;;;5052926;28;20296;-71
2021/12/04 12:19:50;;;;;;;1.60;1.47;;;8.00;99.90;;;;;;5052742;28;20284;-72
2021/12/04 12:22:39;;;;;;;1.40;1.30;;;8.00;99.90;;;;;;5060798;28;20197;-70
2021/12/04 12:25:25;;;;;;;1.97;1.40;;;8.00;99.90;;;;;;5054892;28;20223;-70
2021/12/04 12:33:38;;;;;;;2.00;1.60;;;8.00;99.90;;;;;;5055221;28;20188;-70
2021/12/04 12:36:14;;;;;;;1.80;1.53;;;7.90;99.90;;;;;;5069292;28;20218;-70
2021/12/04 12:38:40;;;;;;;1.50;1.40;;;8.00;99.90;;;;;;5060084;28;20173;-70
2021/12/04 12:41:08;;;;;;;1.83;1.67;;;7.90;99.90;;;;;;5050465;28;20581;-71
2021/12/04 12:43:44;;;;;;;2.97;1.70;;;7.90;99.90;;;;;;5068656;28;20199;-70
2021/12/04 12:46:13;;;;;;;1.93;1.77;;;7.90;99.90;;;;;;5038743;28;20192;-70
2021/12/04 12:48:50;;;;;;;2.07;1.87;;;7.90;99.90;;;;;;5056782;28;20264;-70
2021/12/04 12:51:32;;;;;;;2.10;1.83;;;7.90;99.90;;;;;;5065734;28;20239;-70
2021/12/04 12:54:01;;;;;;;2.50;2.00;;;7.90;99.90;;;;;;5045388;28;20182;-71
2021/12/04 12:56:30;;;;;;;1.83;1.67;;;7.90;99.90;;;;;;5055101;28;20216;-70
2021/12/04 13:12:50;;;;;;;2.37;1.90;;;7.80;99.90;;;;;;5053588;28;20191;-70
2021/12/04 13:15:36;;;;;;;2.47;1.90;;;7.80;99.90;;;;;;5056349;28;20177;-71
2021/12/04 13:18:17;;;;;;;1.90;1.70;;;7.80;99.90;;;;;;5048992;28;20235;-71
2021/12/04 13:20:44;;;;;;;2.03;1.73;;;7.70;99.90;;;;;;5066970;28;20181;-70
2021/12/04 13:23:12;;;;;;;2.03;1.70;;;7.60;99.90;;;;;;5054295;28;20201;-70
2021/12/04 13:25:38;;;;;;;2.07;1.87;;;7.60;99.90;;;;;;5044437;28;20181;-70
2021/12/04 13:30:44;;;;;;;2.43;2.00;;;7.50;99.90;;;;;;5058945;28;20214;-71
2021/12/04 13:33:09;;;;;;;2.03;1.80;;;7.50;99.90;;;;;;5050657;28;20217;-71
2021/12/04 13:35:35;;;;;;;2.20;2.00;;;7.60;99.90;;;;;;5052315;28;20289;-70
2021/12/04 13:38:03;;;;;;;2.13;1.93;;;7.60;99.90;;;;;;5058541;28;20196;-71
2021/12/04 13:40:29;;;;;;;2.40;2.00;;;7.60;99.90;;;;;;5052653;28;20169;-70
2021/12/04 13:42:55;;;;;;;2.00;1.80;;;7.60;99.90;;;;;;5058645;28;20188;-70
2021/12/04 13:45:21;;;;;;;2.53;1.87;;;7.60;99.90;;;;;;5067327;28;20181;-69
2021/12/04 13:47:57;;;;;;;2.10;1.90;;;7.70;99.90;;;;;;5052129;28;20262;-70
2021/12/04 13:53:08;;;;;;;2.23;2.00;;;7.70;99.90;;;;;;5050162;28;20165;-70
2021/12/04 13:55:39;;;;;;;2.70;1.90;;;7.70;99.90;;;;;;5056227;28;20232;-71
2021/12/04 13:58:06;;;;;;;2.20;1.77;;;7.70;99.90;;;;;;5052613;28;20280;-70
2021/12/04 14:00:32;;;;;;;2.10;1.90;;;7.70;99.90;;;;;;5055315;28;20205;-71
2021/12/04 14:03:01;;;;;;;2.10;1.90;;;7.70;99.90;;;;;;5057777;28;20188;-71
2021/12/04 14:05:30;;;;;;;1.90;1.70;;;7.80;99.90;;;;;;5052024;28;20291;-72
2021/12/04 14:08:01;;;;;;;2.07;1.87;;;7.80;99.90;;;;;;5051629;28;20188;-71
2021/12/04 14:10:32;;;;;;;2.20;1.87;;;7.80;99.90;;;;;;5053411;28;20232;-68
2021/12/04 14:13:02;;;;;;;2.07;1.70;;;7.80;99.90;;;;;;5056078;28;20298;-69
2021/12/04 14:15:31;;;;;;;2.60;2.03;;;7.80;99.90;;;;;;5057169;28;20223;-69
2021/12/04 14:18:13;;;;;;;1.90;1.70;;;7.80;99.90;;;;;;5053739;28;20205;-70
2021/12/04 14:20:41;;;;;;;2.10;1.77;;;7.80;99.90;;;;;;5053205;28;20254;-69
2021/12/04 14:23:08;;;;;;;2.10;1.90;;;7.80;99.90;;;;;;5053214;28;20201;-68
2021/12/04 14:25:42;;;;;;;2.17;1.90;;;7.80;99.90;;;;;;5052548;28;20177;-70
2021/12/04 14:28:08;;;;;;;2.13;1.70;;;7.80;99.90;;;;;;5049702;28;20197;-70
2021/12/04 14:30:36;;;;;;;2.03;1.83;;;7.80;99.90;;;;;;5054657;28;20197;-70
2021/12/04 14:33:04;;;;;;;1.67;1.57;;;7.80;99.90;;;;;;5058702;28;20200;-71
2021/12/04 14:35:37;;;;;;;2.47;1.90;;;7.80;99.90;;;;;;5058470;28;20229;-71
2021/12/04 14:38:08;;;;;;;1.87;1.60;;;7.70;99.90;;;;;;5050989;28;20188;-71
2021/12/04 14:41:01;;;;;;;1.97;1.77;;;7.70;99.90;;;;;;5055565;28;20178;-71
2021/12/04 14:43:32;;;;;;;1.60;1.50;;;7.70;99.90;;;;;;5053667;28;20186;-70
2021/12/04 14:46:01;;;;;;;3.40;1.80;;;7.70;99.90;;;;;;5061114;28;20208;-69
2021/12/04 14:48:33;;;;;;;2.00;1.80;;;7.60;99.90;;;;;;5069527;28;20556;-70
2021/12/04 14:51:13;;;;;;;2.00;1.50;;;7.60;99.90;;;;;;5053913;28;20185;-70
2021/12/04 14:53:47;;;;;;;1.83;1.63;;;7.60;99.90;;;;;;5059838;28;20168;-70
2021/12/04 14:56:16;;;;;;;1.50;1.40;;;7.50;99.90;;;;;;5058034;28;20299;-70
2021/12/04 14:58:42;;;;;;;2.90;2.00;;;7.50;99.90;;;;;;5057732;28;20177;-70
2021/12/04 15:01:11;;;;;;;2.50;2.07;;;7.50;99.90;;;;;;5057689;28;20268;-71
2021/12/04 15:03:44;;;;;;;2.10;1.83;;;7.50;99.90;;;;;;5056515;28;20208;-69
2021/12/04 15:06:15;;;;;;;2.17;1.77;;;7.40;99.90;;;;;;5061211;28;20308;-70
2021/12/04 15:08:53;;;;;;;2.10;1.83;;;7.40;99.90;;;;;;5060122;28;20272;-70
2021/12/04 15:11:29;;;;;;;2.23;2.03;;;7.40;99.90;;;;;;5061865;28;20272;-70
2021/12/04 15:14:16;;;;;;;2.07;1.77;;;7.40;99.90;;;;;;5061167;28;20288;-69
2021/12/04 15:16:51;;;;;;;3.47;2.00;;;7.40;99.90;;;;;;5054802;28;20227;-69
2021/12/04 15:19:47;;;;;;;2.17;1.70;;;7.40;99.90;;;;;;5056623;28;20177;-70
2021/12/04 15:22:22;;;;;;;1.90;1.70;;;7.40;99.90;;;;;;5056241;28;20758;-70
2021/12/04 15:24:48;;;;;;;2.30;1.73;;;7.40;99.90;;;;;;5051833;28;20239;-70
2021/12/04 15:27:21;;;;;;;4.63;3.43;;;7.30;99.90;;;;;;5055421;28;20258;-70
2021/12/04 15:29:51;;;;;;;3.13;2.60;;;7.30;99.90;;;;;;5059070;28;20177;-70
2021/12/04 15:32:28;;;;;;;2.40;2.13;;;7.40;99.90;;;;;;5056176;28;20189;-70
2021/12/04 15:35:20;;;;;;;2.20;1.97;;;7.30;99.90;;;;;;5058914;28;20457;-68
2021/12/04 15:37:58;;;;;;;2.50;1.90;;;7.30;99.90;;;;;;5059958;28;20203;-70
2021/12/04 15:40:29;;;;;;;2.90;2.20;;;7.30;99.90;;;;;;5050543;28;20181;-69
2021/12/04 15:45:33;;;;;;;2.77;2.30;;;7.30;99.90;;;;;;5058723;28;20174;-69
2021/12/04 15:48:36;;;;;;;2.80;2.40;;;7.30;99.90;;;;;;5057037;28;20184;-70
2021/12/04 15:53:57;;;;;;;2.30;1.90;;;7.30;99.90;;;;;;5061560;28;20311;-69
2021/12/04 15:56:37;;;;;;;2.10;1.73;;;7.30;99.90;;;;;;5047308;28;20189;-68
2021/12/04 15:59:06;;;;;;;1.97;1.20;;;7.30;99.90;;;;;;5049121;28;20342;-69
2021/12/04 16:01:32;;;;;;;1.80;0.90;;;7.20;99.90;;;;;;5063478;28;20185;-69
2021/12/04 16:03:59;;;;;;;1.20;0.93;;;7.20;99.90;;;;;;5054865;28;20177;-69
2021/12/04 16:06:37;;;;;;;1.03;0.80;;;7.10;99.90;;;;;;5054710;28;20235;-69
2021/12/04 16:09:03;;;;;;;1.10;0.80;;;7.10;99.90;;;;;;5056045;28;20177;-69
2021/12/04 16:11:38;;;;;;;1.27;0.90;;;7.00;99.90;;;;;;5057053;28;20181;-69
2021/12/04 16:14:09;;;;;;;0.97;0.80;;;6.90;99.90;;;;;;5057298;28;20259;-70
2021/12/04 16:16:43;;;;;;;0.87;0.77;;;6.90;99.90;;;;;;5052993;28;20240;-70
2021/12/04 16:19:13;;;;;;;0.67;0.63;;;6.80;99.90;;;;;;5054956;28;20176;-69
2021/12/04 16:21:39;;;;;;;0.70;0.60;;;6.80;99.90;;;;;;5053910;28;20232;-70
2021/12/04 16:24:06;;;;;;;0.83;0.70;;;6.70;99.90;;;;;;5050010;28;20173;-69
2021/12/04 16:26:33;;;;;;;0.70;0.70;;;6.70;99.90;;;;;;5061598;28;20311;-69
2021/12/04 16:37:35;;;;;;;2.13;0.80;;;6.60;99.90;;;;;;5051136;28;20201;-70
2021/12/04 16:40:05;;;;;;;1.20;0.80;;;6.60;99.90;;;;;;5057132;28;20177;-69
2021/12/04 16:42:34;;;;;;;1.20;0.90;;;6.60;99.90;;;;;;5059307;28;20170;-70
2021/12/04 16:45:07;;;;;;;0.90;0.70;;;6.60;99.90;;;;;;5048457;28;20188;-67